Towanda, Pennsylvania
Current Conditions -  °F | °C
As of 3:24 AM on Monday 24 Nov 2014 (Local Time) from KELM Reporting Station
Heavy Rain Heavy Rain  
Wind Chill: 51°   Ceiling: 5000
Heat Index: 51°   Visibility: 3mi
Dew Point: 49°   Wind: 12mph
Humidity: 92%   Direction: 130°SE
Pressure: 29.52"   Gusts: 23mph
Location:  41.77°N, 76.44°W
Report Text: KELM 240824Z AUTO 13010G20KT 3SM +RA BR FEW009 BKN050 OVC070 11/09 A2952 RMK AO2 P0011 T01060094
Loading
Personal Weather Stations






























Interactive Weather Map New forecast layout! Learn more

10-Day Weather Forecast

Advertisements
Track Severe Weather on mobile